Aeroporto :
LOGIN :

Iscrizione | Disclaimer

   EN    FR    IT 

 










Sommario :    VFR   VFR Marginale   IFR   IFR Intensivo   IFR Molto Intensivo
Visibilità : 
Base nubi : 
>= 8 km
>= 3000ft
5 / 8 km
1000 / 3000 ft
1500m / 5 km
500 / 1000 ft
800 / 1500m
200 / 500 ft
< 800m
< 200 ft
Simboli :   Temporali  Nebbia  Neve Forte  Precipitazioni Forti  Vento > 20 kt
SIGMETs :   Varie  Temporali  Ghiacco  Turbolenza  Onda orograficha  Ceneri Vulcaniche






- Altitudine del aeroporto : 309 ft
- Codice IATA : FNI


LFTW - Nîmes Garons

ULTIMO METAR :
  • 241030Z AUTO 03003KT 350V060 9999 -RA FEW048/// OVC056/// ///TCU 09/08 Q1024 TEMPO VRB15G25KT 1200 SHRA BR OVC010TCU

METARs OBSOLETI :
  • 241000Z AUTO VRB03KT 9999 -RA ///CB 09/08 Q1024 TEMPO VRB15G25KT 1200 SHRA BR OVC010TCU
  • 240930Z AUTO 08006KT 9999 -RA FEW018/// OVC056/// ///CB 09/07 Q1023 TEMPO VRB15G25KT 1200 SHRA BR OVC010TCU
  • 240900Z AUTO 05004KT 9999 -RA ///CB 10/06 Q1023 TEMPO VRB15G25KT 1200 SHRA BR OVC010TCU
  • 240830Z AUTO 08007KT 9999 ///CB 11/05 Q1023 TEMPO VRB15G25KT 1200 SHRA BR OVC010TCU
  • 240800Z AUTO 09007KT 9999 ///TCU 10/05 Q1023 TEMPO 4000 SHRA

TAF TAF LFTW
Valido dal 24 a 09 ore il 25 a 09 ore UTC


240800Z 2409/2509 VRB05KT 9999 BKN020
TEMPO 2409/2509 VRB15G25KT 1200 SHRA BR OVC010TCU
PROB40
TEMPO 2502/2508 0100 FG VV///



MetMap, La meteo Aeronautica in un colpo d'occhio ! - Copyright ORBIFLY Dicembre 2007 - Disclaimer

ORBIFLY MET'MAP TEAM :

Programmazione e sviluppo : Alexandra Zaïnal
Concezione : Baudouin d'Aumeries
Aiuto per la programmazione : Marc-Olivier Méhu
Supporto tecnico e logistico : Manuel Goepfert
Aiuto per la traduzione : Arnaldo La Scala

Contatto : metmap@orbifly.com




FONTI E CREDITI :

   NOAA